Aeroporto :
LOGIN :

Iscrizione | Disclaimer

   EN    FR    IT 

 










Sommario :    VFR   VFR Marginale   IFR   IFR Intensivo   IFR Molto Intensivo
Visibilità : 
Base nubi : 
>= 8 km
>= 3000ft
5 / 8 km
1000 / 3000 ft
1500m / 5 km
500 / 1000 ft
800 / 1500m
200 / 500 ft
< 800m
< 200 ft
Simboli :   Temporali  Nebbia  Neve Forte  Precipitazioni Forti  Vento > 20 kt
SIGMETs :   Varie  Temporali  Ghiacco  Turbolenza  Onda orograficha  Ceneri Vulcaniche






- Altitudine del aeroporto : 5600 ft
- Codice IATA : SMV


LSZS - Samedan

ULTIMO METAR :
  • 210420Z AUTO 18005KT 140V240 5000 RA BKN039 09/08 Q1022

METARs OBSOLETI :
  • 210350Z AUTO 18005KT 9999 -RA FEW037 SCT050 08/08 Q1022
  • 210320Z AUTO VRB02KT 9999 -RA FEW039 BKN050 BKN070 08/08 Q1020
  • 210250Z AUTO VRB03KT 9999 -RA SCT034 SCT050 08/08 Q1020
  • 210220Z AUTO 19004KT 130V270 9999 -RA BKN050 SCT070 08/08 Q1020
  • 210150Z AUTO 21009KT 160V230 9999 -RA BKN050 SCT070 09/07 Q1021

Previsioni scadute.
ATIS : +41 81 834 93 24



MetMap, La meteo Aeronautica in un colpo d'occhio ! - Copyright ORBIFLY Dicembre 2007 - Disclaimer

ORBIFLY MET'MAP TEAM :

Programmazione e sviluppo : Alexandra Zaïnal
Concezione e sviluppo : Baudouin d'Aumeries
Co-Programmazione e sviluppo : Marc-Olivier Méhu
Supporto tecnico e logistico : Manuel Goepfert
Aiuto per la traduzione : Arnaldo La Scala

Contatto : metmap@orbifly.com




FONTI E CREDITI :

   NOAA